createdAt,value
2023-04-10T00:02:25.108Z,5.54
2023-04-10T00:04:52.724Z,5.66
2023-04-10T00:07:20.125Z,5.65
2023-04-10T00:09:47.349Z,5.65
2023-04-10T00:12:15.678Z,5.64
2023-04-10T00:14:42.939Z,5.58
2023-04-10T00:17:10.428Z,5.51
2023-04-10T00:19:37.674Z,5.55
2023-04-10T00:22:05.145Z,5.57
2023-04-10T00:24:32.429Z,5.61
2023-04-10T00:26:59.833Z,5.48
2023-04-10T00:29:27.091Z,5.43
2023-04-10T00:31:54.456Z,5.54
2023-04-10T00:34:21.780Z,5.37
2023-04-10T00:36:49.166Z,5.31
2023-04-10T00:39:16.849Z,5.37
2023-04-10T00:41:44.394Z,5.38
2023-04-10T00:44:12.031Z,5.33
2023-04-10T00:46:39.428Z,5.26
2023-04-10T00:49:07.014Z,5.27
2023-04-10T00:51:34.364Z,5.22
2023-04-10T00:54:02.546Z,5.12
2023-04-10T00:56:32.834Z,5.06
2023-04-10T00:59:00.324Z,5.05
2023-04-10T01:01:27.597Z,5.09
2023-04-10T01:03:55.193Z,5.13
2023-04-10T01:06:47.718Z,5.19
2023-04-10T01:09:31.822Z,5.01
2023-04-10T01:12:11.477Z,5.09
2023-04-10T01:14:56.990Z,5.03
2023-04-10T01:17:38.752Z,5.05
2023-04-10T01:20:09.142Z,5.01
2023-04-10T01:22:45.391Z,4.92
2023-04-10T01:25:21.724Z,4.95
2023-04-10T01:27:58.232Z,5.00
2023-04-10T01:30:25.738Z,4.93
2023-04-10T01:32:53.556Z,4.92
2023-04-10T01:35:21.223Z,4.89
2023-04-10T01:37:48.764Z,4.95
2023-04-10T01:40:16.420Z,5.01
2023-04-10T01:42:45.687Z,4.97
2023-04-10T01:45:16.961Z,4.95
2023-04-10T01:47:46.231Z,4.95
2023-04-10T01:50:13.582Z,5.06
2023-04-10T01:52:40.845Z,5.06
2023-04-10T01:55:20.991Z,5.10
2023-04-10T01:57:53.870Z,4.96
2023-04-10T02:00:22.977Z,4.97
2023-04-10T02:02:51.246Z,4.96
2023-04-10T02:05:18.785Z,4.93
2023-04-10T02:08:01.386Z,4.97
2023-04-10T02:10:31.617Z,4.87
2023-04-10T02:13:06.445Z,4.83
2023-04-10T02:15:33.912Z,4.96
2023-04-10T02:18:01.726Z,4.95
2023-04-10T02:20:29.125Z,4.97
2023-04-10T02:22:57.007Z,4.95
2023-04-10T02:25:26.264Z,5.05
2023-04-10T02:27:53.475Z,5.06
2023-04-10T02:30:20.844Z,5.00
2023-04-10T02:32:48.076Z,4.93
2023-04-10T02:35:18.112Z,5.01
2023-04-10T02:37:47.421Z,4.90
2023-04-10T02:40:15.768Z,4.95
2023-04-10T02:42:51.645Z,4.92
2023-04-10T02:45:18.985Z,4.96
2023-04-10T02:47:46.329Z,4.96
2023-04-10T02:50:13.704Z,5.01
2023-04-10T02:52:44.458Z,5.03
2023-04-10T02:55:11.935Z,5.09
2023-04-10T02:57:42.724Z,4.99
2023-04-10T03:00:10.743Z,4.89
2023-04-10T03:02:56.870Z,4.96
2023-04-10T03:05:27.178Z,4.90
2023-04-10T03:07:54.610Z,5.03
2023-04-10T03:10:21.922Z,5.10
2023-04-10T03:12:49.203Z,5.05
2023-04-10T03:15:16.460Z,5.03
2023-04-10T03:17:43.759Z,5.07
2023-04-10T03:20:11.841Z,4.90
2023-04-10T03:22:39.804Z,4.85
2023-04-10T03:25:08.408Z,4.85
2023-04-10T03:27:35.783Z,4.87
2023-04-10T03:30:03.552Z,4.83
2023-04-10T03:32:39.157Z,4.99
2023-04-10T03:35:08.031Z,4.97
2023-04-10T03:37:35.584Z,5.09
2023-04-10T03:40:07.400Z,4.97
2023-04-10T03:42:35.463Z,5.00
2023-04-10T03:45:04.894Z,4.78
2023-04-10T03:47:32.594Z,4.87
2023-04-10T03:50:01.469Z,4.95
2023-04-10T03:52:35.605Z,4.96
2023-04-10T03:55:03.034Z,4.85
2023-04-10T03:57:30.375Z,4.79
2023-04-10T04:00:04.382Z,4.73
2023-04-10T04:02:48.194Z,4.79
2023-04-10T04:05:24.529Z,4.87
2023-04-10T04:08:10.656Z,4.83
2023-04-10T04:10:56.623Z,4.80
2023-04-10T04:13:34.261Z,4.78
2023-04-10T04:16:09.819Z,4.80
2023-04-10T04:18:50.870Z,4.76
2023-04-10T04:21:38.248Z,4.85
2023-04-10T04:24:12.883Z,4.73
2023-04-10T04:27:06.150Z,4.66
2023-04-10T04:29:48.963Z,4.72
2023-04-10T04:32:35.525Z,4.69
2023-04-10T04:35:13.497Z,4.66
2023-04-10T04:38:06.953Z,4.64
2023-04-10T04:40:45.425Z,4.64
2023-04-10T04:43:39.265Z,4.52
2023-04-10T04:46:26.792Z,4.59
2023-04-10T04:49:10.961Z,4.71
2023-04-10T04:52:05.691Z,4.58
2023-04-10T04:55:02.191Z,4.64
2023-04-10T04:57:54.595Z,4.56
2023-04-10T05:00:32.101Z,4.54
2023-04-10T05:03:09.877Z,4.59
2023-04-10T05:05:58.155Z,4.73
2023-04-10T05:08:45.387Z,4.85
2023-04-10T05:11:31.165Z,4.95
2023-04-10T05:14:24.548Z,4.93
2023-04-10T05:17:02.164Z,4.99
2023-04-10T05:20:03.456Z,5.01
2023-04-10T05:22:50.161Z,5.13
2023-04-10T05:25:48.133Z,5.23
2023-04-10T05:28:33.706Z,5.28
2023-04-10T05:31:17.485Z,5.33
2023-04-10T05:33:50.494Z,5.38
2023-04-10T05:36:33.805Z,5.44
2023-04-10T05:39:06.329Z,5.50
2023-04-10T05:41:51.976Z,5.58
2023-04-10T05:44:26.133Z,5.78
2023-04-10T05:47:02.203Z,5.91
2023-04-10T05:49:52.160Z,5.95
2023-04-10T05:52:51.540Z,6.06
2023-04-10T05:55:56.703Z,6.15
2023-04-10T05:58:44.767Z,6.30
2023-04-10T06:01:32.341Z,6.41
2023-04-10T06:04:03.252Z,6.68
2023-04-10T06:06:31.741Z,6.80
2023-04-10T06:08:59.064Z,6.78
2023-04-10T06:11:26.313Z,7.08
2023-04-10T06:13:55.945Z,7.18
2023-04-10T06:16:30.505Z,7.20
2023-04-10T06:18:58.248Z,7.36
2023-04-10T06:21:26.028Z,7.37
2023-04-10T06:23:53.550Z,7.60
2023-04-10T06:26:21.044Z,7.67
2023-04-10T06:28:48.389Z,7.87
2023-04-10T06:31:19.220Z,8.01
2023-04-10T06:33:46.740Z,8.21
2023-04-10T06:36:13.998Z,8.33
2023-04-10T06:38:48.444Z,8.42
2023-04-10T06:41:15.856Z,8.49
2023-04-10T06:43:43.176Z,8.64
2023-04-10T06:46:10.566Z,8.74
2023-04-10T06:48:37.787Z,8.90
2023-04-10T06:51:05.392Z,9.59
2023-04-10T06:53:32.660Z,11.87
2023-04-10T06:56:02.445Z,13.87
2023-04-10T06:58:31.166Z,15.17
2023-04-10T07:00:59.055Z,15.94
2023-04-10T07:03:26.453Z,16.52
2023-04-10T07:05:53.656Z,16.81
2023-04-10T07:08:20.954Z,16.45
2023-04-10T07:10:49.422Z,16.53
2023-04-10T07:13:16.933Z,16.49
2023-04-10T07:15:44.148Z,16.32
2023-04-10T07:18:11.501Z,16.04
2023-04-10T07:20:38.753Z,16.12
2023-04-10T07:23:06.048Z,16.36
2023-04-10T07:25:34.130Z,16.70
2023-04-10T07:28:01.703Z,16.98
2023-04-10T07:30:28.938Z,17.83
2023-04-10T07:32:56.445Z,18.01
2023-04-10T07:35:23.813Z,17.80
2023-04-10T07:37:52.714Z,17.63
2023-04-10T07:40:20.098Z,17.50
2023-04-10T07:42:47.671Z,17.53
2023-04-10T07:45:15.051Z,17.39
2023-04-10T07:47:42.376Z,17.70
2023-04-10T07:50:09.801Z,17.73
2023-04-10T07:52:37.152Z,17.67
2023-04-10T07:55:04.716Z,17.53
2023-04-10T07:57:32.398Z,17.96
2023-04-10T07:59:59.864Z,17.89
2023-04-10T08:02:27.257Z,16.91
2023-04-10T08:04:54.929Z,16.13
2023-04-10T08:07:25.227Z,16.52
2023-04-10T08:09:52.591Z,15.89
2023-04-10T08:12:19.819Z,14.49
2023-04-10T08:14:47.151Z,16.49
2023-04-10T08:17:15.097Z,16.88
2023-04-10T08:19:43.451Z,15.72
2023-04-10T08:22:10.914Z,16.71
2023-04-10T08:24:38.168Z,15.19
2023-04-10T08:27:05.532Z,13.84
2023-04-10T08:29:32.800Z,14.17
2023-04-10T08:32:01.177Z,15.40
2023-04-10T08:34:28.549Z,17.07
2023-04-10T08:36:55.810Z,17.26
2023-04-10T08:39:23.174Z,15.36
2023-04-10T08:41:50.698Z,13.91
2023-04-10T08:44:17.982Z,13.26
2023-04-10T08:46:45.490Z,12.67
2023-04-10T08:49:17.890Z,13.03
2023-04-10T08:51:48.694Z,12.66
2023-04-10T08:54:21.566Z,12.93
2023-04-10T08:56:51.230Z,13.19
2023-04-10T08:59:18.568Z,13.46
2023-04-10T09:01:46.851Z,13.39
2023-04-10T09:04:14.619Z,12.85
2023-04-10T09:06:42.111Z,12.98
2023-04-10T09:09:09.920Z,12.83
2023-04-10T09:12:04.496Z,13.11
2023-04-10T09:14:32.963Z,13.01
2023-04-10T09:17:25.012Z,13.21
2023-04-10T09:19:53.674Z,13.43
2023-04-10T09:22:34.512Z,13.12
2023-04-10T09:25:02.885Z,13.01
2023-04-10T09:27:31.884Z,12.88
2023-04-10T09:29:59.268Z,12.88
2023-04-10T09:32:43.301Z,12.98
2023-04-10T09:35:11.867Z,12.88
2023-04-10T09:37:39.278Z,12.74
2023-04-10T09:40:07.325Z,12.80
2023-04-10T09:42:37.749Z,12.94
2023-04-10T09:45:05.472Z,13.36
2023-04-10T09:47:34.469Z,13.31
2023-04-10T09:50:01.882Z,13.01
2023-04-10T09:52:38.299Z,13.00
2023-04-10T09:55:06.616Z,13.41
2023-04-10T09:57:34.504Z,13.53
2023-04-10T10:00:04.391Z,13.45
2023-04-10T10:02:37.204Z,13.53
2023-04-10T10:05:05.931Z,13.55
2023-04-10T10:07:33.267Z,13.61
2023-04-10T10:10:00.817Z,13.84
2023-04-10T10:12:47.709Z,13.87
2023-04-10T10:15:39.640Z,14.22
2023-04-10T10:18:25.760Z,14.14
2023-04-10T10:20:53.148Z,13.89
2023-04-10T10:23:20.452Z,14.01
2023-04-10T10:25:47.776Z,14.21
2023-04-10T10:28:15.061Z,14.67
2023-04-10T10:30:42.486Z,14.78
2023-04-10T10:33:09.762Z,14.68
2023-04-10T10:35:37.330Z,14.79
2023-04-10T10:38:04.640Z,14.80
2023-04-10T10:41:09.462Z,14.85
2023-04-10T10:43:55.104Z,14.98
2023-04-10T10:46:52.652Z,15.09
2023-04-10T10:49:19.911Z,15.38
2023-04-10T10:51:48.457Z,15.29
2023-04-10T10:54:32.512Z,15.26
2023-04-10T10:57:00.271Z,14.86
2023-04-10T10:59:46.211Z,15.27
2023-04-10T11:02:17.361Z,15.48
2023-04-10T11:04:48.690Z,15.31
2023-04-10T11:07:16.265Z,15.40
2023-04-10T11:09:54.608Z,15.54
2023-04-10T11:12:25.575Z,15.31
2023-04-10T11:15:22.476Z,15.47
2023-04-10T11:17:54.472Z,15.51
2023-04-10T11:20:25.825Z,15.69
2023-04-10T11:23:12.195Z,16.05
2023-04-10T11:25:55.911Z,16.37
2023-04-10T11:28:32.989Z,16.29
2023-04-10T11:31:35.925Z,15.97
2023-04-10T11:34:07.953Z,15.44
2023-04-10T11:36:38.626Z,15.14
2023-04-10T11:39:10.382Z,14.99
2023-04-10T11:41:42.830Z,15.48
2023-04-10T11:44:15.076Z,15.74
2023-04-10T11:46:48.182Z,16.23
2023-04-10T11:49:22.753Z,16.39
2023-04-10T11:51:50.894Z,16.57
2023-04-10T11:54:25.578Z,16.63
2023-04-10T11:57:00.220Z,17.07
2023-04-10T11:59:27.792Z,16.08
2023-04-10T12:02:05.432Z,16.52
2023-04-10T12:04:33.741Z,16.45
2023-04-10T12:07:01.312Z,15.85
2023-04-10T12:09:28.747Z,15.67
2023-04-10T12:11:59.818Z,15.85
2023-04-10T12:14:33.879Z,16.50
2023-04-10T12:17:01.806Z,16.87
2023-04-10T12:19:29.463Z,16.92
2023-04-10T12:21:57.657Z,17.39
2023-04-10T12:24:44.300Z,16.64
2023-04-10T12:27:27.800Z,15.94
2023-04-10T12:29:56.699Z,15.17
2023-04-10T12:32:24.769Z,15.41
2023-04-10T12:34:59.300Z,15.69
2023-04-10T12:37:47.094Z,16.15
2023-04-10T12:40:14.923Z,16.52
2023-04-10T12:42:42.820Z,16.91
2023-04-10T12:45:13.574Z,16.95
2023-04-10T12:47:48.266Z,16.97
2023-04-10T12:50:16.649Z,17.04
2023-04-10T12:52:45.964Z,17.19
2023-04-10T12:55:16.460Z,17.47
2023-04-10T12:57:47.824Z,17.53
2023-04-10T13:00:17.562Z,16.85
2023-04-10T13:02:45.257Z,16.60
2023-04-10T13:05:12.734Z,16.26
2023-04-10T13:07:40.184Z,16.12
2023-04-10T13:10:08.297Z,16.34
2023-04-10T13:12:36.446Z,16.39
2023-04-10T13:15:03.898Z,16.50
2023-04-10T13:17:31.265Z,16.80
2023-04-10T13:19:58.616Z,16.87
2023-04-10T13:22:25.913Z,16.77
2023-04-10T13:24:53.231Z,16.27
2023-04-10T13:27:20.470Z,15.97
2023-04-10T13:29:47.867Z,15.43
2023-04-10T13:32:15.080Z,15.87
2023-04-10T13:34:42.403Z,16.13
2023-04-10T13:37:13.082Z,16.23
2023-04-10T13:39:40.540Z,16.20
2023-04-10T13:42:07.740Z,16.26
2023-04-10T13:44:35.035Z,16.39
2023-04-10T13:47:02.379Z,16.53
2023-04-10T13:49:32.400Z,15.78
2023-04-10T13:51:59.678Z,15.43
2023-04-10T13:54:26.982Z,15.17
2023-04-10T13:56:54.857Z,14.95
2023-04-10T13:59:22.324Z,14.88
2023-04-10T14:01:52.653Z,15.27
2023-04-10T14:04:20.310Z,15.60
2023-04-10T14:06:48.548Z,16.12
2023-04-10T14:09:16.775Z,16.29
2023-04-10T14:11:44.043Z,16.45
2023-04-10T14:14:11.446Z,16.68
2023-04-10T14:16:38.764Z,16.74
2023-04-10T14:19:06.256Z,16.81
2023-04-10T14:21:33.505Z,16.84
2023-04-10T14:24:00.741Z,16.85
2023-04-10T14:26:28.187Z,16.57
2023-04-10T14:28:56.135Z,16.43
2023-04-10T14:31:23.427Z,16.64
2023-04-10T14:33:50.862Z,16.26
2023-04-10T14:36:18.180Z,16.57
2023-04-10T14:38:45.546Z,16.37
2023-04-10T14:41:12.816Z,15.78
2023-04-10T14:43:40.324Z,15.23
2023-04-10T14:46:07.562Z,15.16
2023-04-10T14:48:35.151Z,15.09
2023-04-10T14:51:02.674Z,14.95
2023-04-10T14:53:29.958Z,14.73
2023-04-10T14:55:57.231Z,15.04
2023-04-10T14:58:24.603Z,15.26
2023-04-10T15:00:52.200Z,15.33
2023-04-10T15:03:20.037Z,15.43
2023-04-10T15:05:48.384Z,15.55
2023-04-10T15:08:15.696Z,15.43
2023-04-10T15:10:43.010Z,15.23
2023-04-10T15:13:10.307Z,15.23
2023-04-10T15:15:37.569Z,15.27
2023-04-10T15:18:05.077Z,15.24
2023-04-10T15:20:32.421Z,15.22
2023-04-10T15:23:01.842Z,15.23
2023-04-10T15:25:29.176Z,15.36
2023-04-10T15:27:56.600Z,15.13
2023-04-10T15:30:23.935Z,14.85
2023-04-10T15:32:51.307Z,14.93
2023-04-10T15:35:18.634Z,15.02
2023-04-10T15:37:45.937Z,15.03
2023-04-10T15:40:13.292Z,14.96
2023-04-10T15:42:40.742Z,14.96
2023-04-10T15:45:08.166Z,15.04
2023-04-10T15:47:35.686Z,14.99
2023-04-10T15:50:03.006Z,15.00
2023-04-10T15:52:32.790Z,14.95
2023-04-10T15:54:59.996Z,14.93
2023-04-10T15:57:27.322Z,14.93
2023-04-10T15:59:56.685Z,14.93
2023-04-10T16:02:24.198Z,14.93
2023-04-10T16:04:51.778Z,14.73
2023-04-10T16:07:19.655Z,14.72
2023-04-10T16:09:46.941Z,14.80
2023-04-10T16:12:14.214Z,14.65
2023-04-10T16:14:41.460Z,14.73
2023-04-10T16:17:08.900Z,14.52
2023-04-10T16:19:36.231Z,14.57
2023-04-10T16:22:03.494Z,14.52
2023-04-10T16:24:30.891Z,14.42
2023-04-10T16:26:58.149Z,14.25
2023-04-10T16:29:25.360Z,14.22
2023-04-10T16:31:52.760Z,14.30
2023-04-10T16:34:20.147Z,14.27
2023-04-10T16:36:47.509Z,14.27
2023-04-10T16:39:14.732Z,14.10
2023-04-10T16:41:42.190Z,14.04
2023-04-10T16:44:09.489Z,14.06
2023-04-10T16:46:36.928Z,14.09
2023-04-10T16:49:04.212Z,14.03
2023-04-10T16:51:31.671Z,13.90
2023-04-10T16:53:59.012Z,13.87
2023-04-10T16:56:26.530Z,13.97
2023-04-10T16:58:54.092Z,13.87
2023-04-10T17:01:25.397Z,13.99
2023-04-10T17:03:53.585Z,13.89
2023-04-10T17:06:20.828Z,13.86
2023-04-10T17:08:48.180Z,13.80
2023-04-10T17:11:16.203Z,13.77
2023-04-10T17:13:43.695Z,13.65
2023-04-10T17:16:11.195Z,13.55
2023-04-10T17:18:38.751Z,13.67
2023-04-10T17:21:06.232Z,13.58
2023-04-10T17:23:33.642Z,13.43
2023-04-10T17:26:04.818Z,13.39
2023-04-10T17:28:35.379Z,13.16
2023-04-10T17:31:02.752Z,13.41
2023-04-10T17:33:30.077Z,13.19
2023-04-10T17:35:57.528Z,13.10
2023-04-10T17:38:24.822Z,12.95
2023-04-10T17:40:52.306Z,13.01
2023-04-10T17:43:19.553Z,12.83
2023-04-10T17:45:46.818Z,12.85
2023-04-10T17:48:14.078Z,12.87
2023-04-10T17:50:41.484Z,12.84
2023-04-10T17:53:08.769Z,12.81
2023-04-10T17:55:39.619Z,12.84
2023-04-10T17:58:07.242Z,12.80
2023-04-10T18:00:34.842Z,12.64
2023-04-10T18:03:02.210Z,12.60
2023-04-10T18:05:30.126Z,12.43
2023-04-10T18:07:57.428Z,12.52
2023-04-10T18:10:24.651Z,12.56
2023-04-10T18:12:51.977Z,12.61
2023-04-10T18:15:19.164Z,12.54
2023-04-10T18:17:46.589Z,12.49
2023-04-10T18:20:14.926Z,12.52
2023-04-10T18:22:42.328Z,12.59
2023-04-10T18:25:09.753Z,12.45
2023-04-10T18:27:37.211Z,12.42
2023-04-10T18:30:04.828Z,12.43
2023-04-10T18:32:32.117Z,12.33
2023-04-10T18:35:00.009Z,12.22
2023-04-10T18:37:27.359Z,12.25
2023-04-10T18:39:56.918Z,12.30
2023-04-10T18:42:27.819Z,12.37
2023-04-10T18:44:55.306Z,12.25
2023-04-10T18:47:22.747Z,12.18
2023-04-10T18:49:50.125Z,12.11
2023-04-10T18:52:17.457Z,12.11
2023-04-10T18:54:45.641Z,12.08
2023-04-10T18:57:13.964Z,11.95
2023-04-10T18:59:41.225Z,11.79
2023-04-10T19:02:09.120Z,11.48
2023-04-10T19:04:36.603Z,11.26
2023-04-10T19:07:04.878Z,11.16
2023-04-10T19:09:32.114Z,11.09
2023-04-10T19:11:59.621Z,11.05
2023-04-10T19:14:26.787Z,11.00
2023-04-10T19:16:54.134Z,11.17
2023-04-10T19:19:21.448Z,11.27
2023-04-10T19:21:48.821Z,11.20
2023-04-10T19:24:16.279Z,11.17
2023-04-10T19:26:43.746Z,10.88
2023-04-10T19:29:11.097Z,10.73
2023-04-10T19:31:38.609Z,10.76
2023-04-10T19:34:12.506Z,10.89
2023-04-10T19:36:39.979Z,10.93
2023-04-10T19:39:07.292Z,10.86
2023-04-10T19:41:34.638Z,10.98
2023-04-10T19:44:02.057Z,11.03
2023-04-10T19:46:29.588Z,11.05
2023-04-10T19:48:56.850Z,11.00
2023-04-10T19:51:24.206Z,10.96
2023-04-10T19:53:51.695Z,10.79
2023-04-10T19:56:19.334Z,10.52
2023-04-10T19:58:47.154Z,10.47
2023-04-10T20:01:14.454Z,10.36
2023-04-10T20:03:41.782Z,10.45
2023-04-10T20:06:10.096Z,10.40
2023-04-10T20:08:37.579Z,10.34
2023-04-10T20:11:06.593Z,10.30
2023-04-10T20:13:34.961Z,10.24
2023-04-10T20:16:02.762Z,10.30
2023-04-10T20:18:31.500Z,10.10
2023-04-10T20:20:58.879Z,9.90
2023-04-10T20:23:26.200Z,9.75
2023-04-10T20:25:53.718Z,9.73
2023-04-10T20:28:20.972Z,9.80
2023-04-10T20:30:48.223Z,9.68
2023-04-10T20:33:15.576Z,9.69
2023-04-10T20:35:42.916Z,9.82
2023-04-10T20:38:10.201Z,9.96
2023-04-10T20:40:37.571Z,9.69
2023-04-10T20:43:10.984Z,9.53
2023-04-10T20:45:38.839Z,9.46
2023-04-10T20:48:06.545Z,9.53
2023-04-10T20:50:33.940Z,9.70
2023-04-10T20:53:01.179Z,9.72
2023-04-10T20:55:28.586Z,9.82
2023-04-10T20:57:56.036Z,9.73
2023-04-10T21:00:23.365Z,9.75
2023-04-10T21:02:50.730Z,9.69
2023-04-10T21:05:18.150Z,9.68
2023-04-10T21:07:46.044Z,9.78
2023-04-10T21:10:13.313Z,9.63
2023-04-10T21:12:40.640Z,9.34
2023-04-10T21:15:08.579Z,9.17
2023-04-10T21:17:35.855Z,9.17
2023-04-10T21:20:03.117Z,9.05
2023-04-10T21:22:30.354Z,8.99
2023-04-10T21:24:57.687Z,8.99
2023-04-10T21:27:24.910Z,8.97
2023-04-10T21:29:52.235Z,9.00
2023-04-10T21:32:19.558Z,9.01
2023-04-10T21:34:47.111Z,9.10
2023-04-10T21:37:14.370Z,9.05
2023-04-10T21:39:41.827Z,8.97
2023-04-10T21:42:09.065Z,8.93
2023-04-10T21:44:36.420Z,8.87
2023-04-10T21:47:03.757Z,8.79
2023-04-10T21:49:31.032Z,8.83
2023-04-10T21:51:59.358Z,8.77
2023-04-10T21:54:26.731Z,8.72
2023-04-10T21:56:54.013Z,8.74
2023-04-10T21:59:21.369Z,8.76
2023-04-10T22:01:48.705Z,8.76
2023-04-10T22:04:16.201Z,8.73
2023-04-10T22:06:43.591Z,8.69
2023-04-10T22:09:10.867Z,8.69
2023-04-10T22:11:39.261Z,8.70
2023-04-10T22:14:16.135Z,8.63
2023-04-10T22:16:45.542Z,8.57
2023-04-10T22:19:12.788Z,8.52
2023-04-10T22:21:40.266Z,8.49
2023-04-10T22:24:07.737Z,8.42
2023-04-10T22:26:35.401Z,8.42
2023-04-10T22:29:03.717Z,8.35
2023-04-10T22:31:31.230Z,8.38
2023-04-10T22:33:58.542Z,8.38
2023-04-10T22:36:31.710Z,8.42
2023-04-10T22:38:59.019Z,8.42
2023-04-10T22:41:26.268Z,8.41
2023-04-10T22:43:53.547Z,8.42
2023-04-10T22:46:20.734Z,8.31
2023-04-10T22:48:48.212Z,8.26
2023-04-10T22:51:15.493Z,8.24
2023-04-10T22:53:42.763Z,8.21
2023-04-10T22:56:10.569Z,8.21
2023-04-10T22:58:40.774Z,8.15
2023-04-10T23:01:09.698Z,8.12
2023-04-10T23:03:37.165Z,8.15
2023-04-10T23:06:04.814Z,8.11
2023-04-10T23:08:32.070Z,8.08
2023-04-10T23:10:59.362Z,8.09
2023-04-10T23:13:26.604Z,8.05
2023-04-10T23:15:54.996Z,7.95
2023-04-10T23:18:22.627Z,7.88
2023-04-10T23:20:50.083Z,7.81
2023-04-10T23:23:18.182Z,7.80
2023-04-10T23:25:45.645Z,7.73
2023-04-10T23:28:12.918Z,7.73
2023-04-10T23:30:40.294Z,7.71
2023-04-10T23:33:07.595Z,7.70
2023-04-10T23:35:35.031Z,7.75
2023-04-10T23:38:02.347Z,7.74
2023-04-10T23:40:29.609Z,7.75
2023-04-10T23:42:56.935Z,7.77
2023-04-10T23:45:24.290Z,7.77
2023-04-10T23:47:51.539Z,7.75
2023-04-10T23:50:18.975Z,7.71
2023-04-10T23:52:52.430Z,7.73
2023-04-10T23:55:20.094Z,7.78
2023-04-10T23:57:47.395Z,7.78
